logo
App data

FIVE: Guardians of David

FIVE: Guardians of David is a Diablo-style action-RPG set in the ancient lands of Canaan. Lead and play the five heroes, battling across exotic locations filled with archaic cultures, rich characters, and powerful artifacts. Experience one of the greatest stories ever told in this 11-Act epic.
Store | Hub | SteamDB | Site
Developer: Kingdom Games Publisher: Kingdom Games
Genre: Action, Adventure, RPG
Languages: English, Spanish, German, Hungarian, Russian
Tags: Action (79), RPG (78), Adventure (66), Story Rich (54), Action RPG (46), Historical (41), Isometric (36), Hack and Slash (23), Indie (22)
Category: Single-player, Steam Achievements, Steam Trading Cards, Steam Cloud, Stats
Release date: Nov 24, 2015
Price: $9.99
Score rank: 31% Userscore: 69% Old userscore: 69% Metascore: 66%
Owners: 0 .. 20,000
Followers: 3,329
Peak concurrent players yesterday: 2
Playtime total: 08:59 (average) 08:25 (median)

Steam Spy is still in beta, so expect major bugs.

Owners data:

Access restricted.

This feature is only available to users with special access rights. Sorry.

If you want to proceed, you need to register or log in first and then back Steam Spy on Patreon. Look for Indie or Pro pledge.

Don't forget to use the same email as on Steam Spy!

Audience in 2 weeks:

Access restricted.

This feature is only available to users with special access rights. Sorry.

If you want to proceed, you need to register or log in first and then back Steam Spy on Patreon. Look for Indie or Pro pledge.

Don't forget to use the same email as on Steam Spy!

Peak daily concurrent players:

CCU data courtesy of SteamDB. Used with permission.

Hourly concurrent players:

Daily Twitch stats:

Hourly Twitch stats:

YouTube:

The views data is based on top 50 videos uploaded last week. Actual number of views might be more than the number shown.

The displayed number of videos uploaded yesterday is limited to 50, so if there were more videos uploaded, the number will still show 50.

If the game has commonly used word as its name (like "FEAR" or "Volume") its number of Youtube views might be wrong.

Games similar to this one:

# Game Release date
Price
Score rank
(Userscore / Metascore)
Owners
Players
Playtime (Median)
1 Little Big Adventure 2 Oct 20, 2015 $3.9999% (98%)0 .. 20,0000%00:00 (00:00)
2 Militia Dec 2, 2015 $5.9999% (98%)0 .. 20,0000%00:00 (00:00)
3 Seven Kingdoms: Ancient Adversaries Jun 8, 1998 $2.39N/A (N/A)0 .. 20,0000%00:00 (00:00)
4 Dungeon Warfare Nov 4, 2015 $9.9997% (97%)20,000 .. 50,0002.63%00:46 (00:15)
5 Defend The Highlands Nov 6, 2015 $9.9995% (96%)100,000 .. 200,0001.82%06:42 (10:56)
6 Voodoo Vince: Remastered Apr 18, 2017 $14.9995% (96%/63%)0 .. 20,0000%00:00 (00:00)
7 Darknet Jun 8, 2017 $14.9992% (95%)0 .. 20,0000%00:00 (00:00)
8 Outcast 1.1 Dec 18, 2014 $5.9992% (95%)20,000 .. 50,0000%00:00 (00:00)
9 Chicken Invaders 2 Mar 4, 2016 $3.9992% (95%)0 .. 20,0000%00:00 (00:00)
10 PixelJunk Shooter Nov 11, 2013 $8.9992% (95%/73%)100,000 .. 200,0000%00:00 (00:00)
11 Templar Battleforce Sep 21, 2015 $9.9992% (95%)20,000 .. 50,0000%00:00 (00:00)
12 Hegemony Gold: Wars of Ancient Greece Mar 30, 2012 $14.9992% (95%)20,000 .. 50,0000%00:00 (00:00)
13 Run or Die Dec 11, 2014 $4.9990% (94%)0 .. 20,0000%00:00 (00:00)
14 Supercharged Robot VULKAISER Jun 4, 2015 $4.9990% (94%)20,000 .. 50,0000%00:00 (00:00)
15 Audio Arena Jul 25, 2016 $6.99N/A (N/A)0 .. 20,0000%00:00 (00:00)
16 Majesty Gold HD Sep 4, 2009 $2.4990% (94%)100,000 .. 200,0000%00:00 (00:00)
17 Gold Rush! Classic Dec 23, 1988 $2.99N/A (N/A)200,000 .. 500,0000.6%02:13 (01:57)
18 Stick it to The Man! Dec 13, 2013 $7.9990% (94%/83%)50,000 .. 100,0000%00:00 (00:00)
19 Neon Chrome Apr 28, 2016 $14.9990% (94%/74%)200,000 .. 500,0000%00:00 (00:00)
20 Star Trek: Judgment Rites May 8, 2015 $9.99N/A (N/A)0 .. 20,0000%00:00 (00:00)
21 Kalimba Apr 22, 2015 $9.9990% (94%/81%)0 .. 20,0000%00:00 (00:00)
22 Handsome Mr. Frog Aug 8, 2016 $0.9987% (93%)0 .. 20,0000%00:00 (00:00)
23 Pharaoh Rebirth+ Mar 17, 2016 $9.9987% (93%)0 .. 20,0000%00:00 (00:00)
24 Major Mayhem Feb 24, 2014 $4.99N/A (N/A)20,000 .. 50,0000%00:00 (00:00)
25 Adventure in the Tower of Flight Dec 23, 2015 $4.9987% (93%)0 .. 20,0000%00:00 (00:00)
26 Kick Ass Commandos Nov 17, 2016 $9.9987% (93%)20,000 .. 50,0002.17%00:33 (00:11)
27 Tallowmere Mar 3, 2015 $3.9987% (93%)20,000 .. 50,0000%00:00 (00:00)
28 Super Trench Attack! Jul 24, 2014 $4.9987% (93%)50,000 .. 100,0000.74%00:37 (00:12)
29 Bleed Jul 3, 2013 $4.9987% (93%)50,000 .. 100,0000%00:00 (00:00)
30 Eufloria HD Oct 14, 2014 $14.9987% (93%)200,000 .. 500,0000%00:00 (00:00)
31 Death Ray Manta SE Sep 17, 2015 $1.9983% (92%)20,000 .. 50,0000%00:00 (00:00)
32 Ys VI: The Ark of Napishtim Apr 28, 2015 $19.9983% (92%)20,000 .. 50,0002.44%00:51 (00:17)
33 Below Kryll Sep 7, 2015 $4.9983% (92%)0 .. 20,0005.26%01:37 (00:32)
34 Counter Spell Oct 5, 2015 $9.9983% (92%)0 .. 20,0000%00:00 (00:00)
35 RIVE: Wreck, Hack, Die, Retry! Sep 13, 2016 $3.7483% (92%)200,000 .. 500,0000.39%01:43 (00:34)
36 Anarcute Jul 12, 2016 $14.9983% (92%/79%)0 .. 20,00021.43%03:32 (02:11)
37 Great Big War Game Aug 28, 2012 $6.99N/A (N/A)0 .. 20,0000%00:00 (00:00)
38 Knightmare Tower Jun 16, 2014 $3.9983% (92%)0 .. 20,0000%00:00 (00:00)
39 Battle Academy 2: Eastern Front Sep 12, 2014 $39.9983% (92%/78%)0 .. 20,0000%00:00 (00:00)
40 Shmups Skill Test シューティング技能検定 Jun 9, 2016 $3.49N/A (N/A)0 .. 20,0000%00:00 (00:00)
41 The Juicer Sep 6, 2012 $0.9983% (92%)20,000 .. 50,0000.86%00:15 (00:05)
42 Super Cyborg Jul 8, 2015 $4.9983% (92%)20,000 .. 50,0001.28%01:35 (00:31)
43 Demons with Shotguns Apr 25, 2016 $9.99N/A (N/A)0 .. 20,0000%00:00 (00:00)
44 Warrior Kings: Battles May 6, 2014 $9.9979% (91%/64%)0 .. 20,0000%00:00 (00:00)
45 Valley Aug 24, 2016 $19.9979% (91%)100,000 .. 200,0002.33%02:17 (01:13)
46 Mad Bullets Jun 10, 2016 $1.9979% (91%)0 .. 20,0000%00:00 (00:00)
47 Angry Video Game Nerd II: ASSimilation Mar 29, 2016 $9.9979% (91%)20,000 .. 50,0000%00:00 (00:00)
48 Blue Estate The Game Apr 8, 2015 $12.9979% (91%/59%)50,000 .. 100,0001.12%02:19 (00:46)
49 Wars and Warriors: Joan of Arc Feb 7, 2004 $1.7479% (91%/60%)0 .. 20,0000%00:00 (00:00)
50 Khet 2.0 Oct 1, 2014 $9.9979% (91%)50,000 .. 100,0000%00:00 (00:00)
51 Armed with Wings: Rearmed Jun 1, 2017 $9.9979% (91%)20,000 .. 50,0001.72%00:01 (00:00)
52 Miracle Fly Oct 26, 2015 $7.99N/A (N/A)0 .. 20,0001.89%00:16 (00:05)
53 Swords and Soldiers HD Dec 2, 2010 $9.9979% (91%)200,000 .. 500,0000%00:00 (00:00)
54 Clash of Puppets Dec 16, 2014 $4.99N/A (N/A)0 .. 20,0000%00:00 (00:00)
55 Spider: Rite of the Shrouded Moon Aug 6, 2015 $9.9979% (91%)20,000 .. 50,0000%00:00 (00:00)
56 Ittle Dew Jul 23, 2013 $9.9979% (91%/67%)100,000 .. 200,0000%00:00 (00:00)
57 Momodora III Jul 1, 2014 $1.9979% (91%)50,000 .. 100,0000%00:00 (00:00)
58 Earth Defense Force: Insect Armageddon Dec 14, 2011 $9.9979% (91%/69%)50,000 .. 100,0000%00:00 (00:00)
59 Skulls of the Shogun Jul 29, 2013 $9.9979% (91%/72%)100,000 .. 200,0000%00:00 (00:00)
60 Dandy: Or a Brief Glimpse Into the Life of the Candy Alchemist Aug 4, 2015 $9.99N/A (N/A)0 .. 20,0000%00:00 (00:00)
61 Explosionade Sep 23, 2015 $3.99N/A (N/A)0 .. 20,0002.56%01:43 (00:34)
62 Kohan II: Kings of War Aug 24, 2011 $9.9976% (90%/81%)20,000 .. 50,0000%00:00 (00:00)
63 Apocalypse: Party's Over May 30, 2016 $4.9976% (90%)0 .. 20,0000%00:00 (00:00)
64 Headlander Jul 25, 2016 $19.9976% (90%/74%)100,000 .. 200,0000%00:00 (00:00)
65 Superstatic Sep 15, 2015 $4.99N/A (N/A)0 .. 20,0002.17%00:31 (00:10)
66 Planet of the Eyes Aug 24, 2015 $9.9976% (90%/66%)50,000 .. 100,0000%00:00 (00:00)
67 Weird Hero Nov 18, 2016 $2.9976% (90%)0 .. 20,0000%00:00 (00:00)
68 Silent Storm Gold Edition Oct 2, 2013 $9.9976% (90%/83%)100,000 .. 200,0000%00:00 (00:00)
69 Wild Guns Reloaded Jul 11, 2017 $19.9976% (90%)0 .. 20,0000%00:00 (00:00)
70 Kohan: Ahriman's Gift Nov 6, 2001 $9.99N/A (N/A/79%)0 .. 20,0000%00:00 (00:00)
71 Death's Hangover Jan 20, 2017 $4.9976% (90%)20,000 .. 50,0000%00:00 (00:00)
72 Ace of Seafood Apr 8, 2016 $11.9976% (90%)0 .. 20,0000%00:00 (00:00)
73 Near Death Aug 2, 2016 $14.9976% (90%/70%)0 .. 20,0000%00:00 (00:00)
74 Sneaky Sneaky Nov 12, 2014 $4.9973% (89%/63%)0 .. 20,0000%00:00 (00:00)
75 System Crash Mar 10, 2016 $7.4973% (89%)0 .. 20,0000%00:00 (00:00)
76 Warhammer 40,000: Dawn of War – Winter Assault Aug 7, 2007 $12.9973% (89%)500,000 .. 1,000,0000.28%00:47 (00:15)
77 Codename: Panzers, Phase Two Jul 21, 2005 $14.9973% (89%/80%)20,000 .. 50,0000%00:00 (00:00)
78 Zombo Buster Rising Oct 2, 2016 $1.9973% (89%)0 .. 20,0002.08%04:42 (01:34)
79 MoonBase Commander Feb 6, 2014 $5.9973% (89%/77%)0 .. 20,0000%00:00 (00:00)
80 Lethe - Episode One Aug 1, 2016 $14.9973% (89%)0 .. 20,0000%00:00 (00:00)
81 Command: Northern Inferno Oct 22, 2015 $19.99N/A (N/A)0 .. 20,0000%00:00 (00:00)
82 Spectromancer Feb 11, 2009 $9.9973% (89%)20,000 .. 50,0000%00:00 (00:00)
83 Amaranthine Apr 6, 2016 $2.99N/A (N/A)0 .. 20,0000%00:00 (00:00)
84 CastleStorm Jul 29, 2013 $9.9973% (89%/73%)100,000 .. 200,0000.71%00:08 (00:02)
85 Fort Meow Jun 25, 2015 $7.9973% (89%)0 .. 20,0000%00:00 (00:00)
86 Reverse Crawl Sep 24, 2015 $5.9973% (89%)20,000 .. 50,0000%00:00 (00:00)
87 Mr. Shifty Apr 13, 2017 $14.9970% (88%)50,000 .. 100,0002.35%01:56 (02:45)
88 Anodyne Mar 22, 2013 $9.9970% (88%/75%)100,000 .. 200,0000%00:00 (00:00)
89 Battlepillars Gold Edition Apr 28, 2014 $4.9970% (88%)20,000 .. 50,0002.22%05:47 (01:55)
90 Greed Corp Dec 10, 2010 $9.9970% (88%/76%)200,000 .. 500,0000%00:00 (00:00)
91 The Fall May 30, 2014 $9.9970% (88%/76%)200,000 .. 500,0000.54%01:07 (00:22)
92 Avoid - Sensory Overload Apr 8, 2014 $4.9970% (88%)0 .. 20,0000%00:00 (00:00)
93 Atom Zombie Smasher Mar 14, 2011 $9.9970% (88%/75%)200,000 .. 500,0000.5%01:30 (00:30)
94 Blacksea Odyssey Jun 1, 2016 $9.9970% (88%/74%)0 .. 20,0000%00:00 (00:00)
95 Super Furball May 13, 2014 $3.99N/A (N/A)0 .. 20,0000%00:00 (00:00)
96 Viking Squad Oct 4, 2016 $14.9970% (88%)0 .. 20,0000%00:00 (00:00)
97 The Way May 20, 2016 $14.9970% (88%/67%)20,000 .. 50,0006.33%03:11 (03:12)
98 Tcheco in the Castle of Lucio Jun 22, 2015 $0.9970% (88%)50,000 .. 100,0001.94%04:00 (04:20)
99 Earn to Die 2 May 5, 2016 $4.9970% (88%)0 .. 20,0000%00:00 (00:00)
100 Sang-Froid - Tales of Werewolves Apr 5, 2013 Free67% (87%/79%)200,000 .. 500,0000.89%00:06 (00:05)
101 Neon Shadow Aug 25, 2016 $4.99N/A (N/A)0 .. 20,0000%00:00 (00:00)
102 TRON 2.0 Oct 10, 2014 $9.9967% (87%/84%)20,000 .. 50,0002.7%00:01 (00:00)
103 Shadow Blade: Reload Aug 10, 2015 $14.9967% (87%/70%)20,000 .. 50,0001.45%04:17 (01:25)
104 Supreme Commander Sep 28, 2011 $12.9967% (87%/86%)500,000 .. 1,000,0000.26%00:01 (00:00)
105 Spooky Cats Jun 4, 2015 $2.9967% (87%)20,000 .. 50,0000%00:00 (00:00)
106 The Tiny Tale 2 Jan 30, 2015 $6.99N/A (N/A)0 .. 20,0000%00:00 (00:00)
107 Syrian Warfare Feb 21, 2017 $14.9967% (87%)20,000 .. 50,0000%00:00 (00:00)
108 Civilization IV: Warlords Jul 24, 2006 $4.9967% (87%/84%)1,000,000 .. 2,000,0000%00:00 (00:00)
109 Rush for Berlin Gold Oct 29, 2009 $4.9964% (86%/76%)20,000 .. 50,0000%00:00 (00:00)
110 Meltdown Jun 5, 2014 $6.9964% (86%)50,000 .. 100,0000%00:00 (00:00)
111 Star Ruler Sep 20, 2010 $9.9964% (86%)100,000 .. 200,0000%00:00 (00:00)
112 Time Rifters Oct 21, 2014 $9.9964% (86%)0 .. 20,0000%00:00 (00:00)
113 Interloper May 21, 2015 Free64% (86%/77%)20,000 .. 50,0000%00:00 (00:00)
114 Age of Wonders Shadow Magic Oct 2010 $9.9964% (86%/82%)100,000 .. 200,0000%00:00 (00:00)
115 Magnifico Dec 2, 2014 $4.99N/A (N/A)50,000 .. 100,0000%00:00 (00:00)
116 VelocityUltra Dec 12, 2013 $9.9964% (86%)50,000 .. 100,0000%00:00 (00:00)
117 The Haunted: Hells Reach Oct 24, 2011 $8.9964% (86%/51%)50,000 .. 100,0000%00:00 (00:00)
118 N2O: Nitrous Oxide Jun 29, 2015 $4.99N/A (N/A)0 .. 20,0000%00:00 (00:00)
119 Executive Assault Jul 17, 2015 $12.9964% (86%)0 .. 20,0000%00:00 (00:00)
120 Arcane Sorcery Sep 15, 2015 $4.99N/A (N/A)0 .. 20,0000%00:00 (00:00)
121 Super Chibi Knight Jun 24, 2015 $4.9964% (86%)0 .. 20,0002.94%01:30 (00:30)
122 Ghost Master Dec 21, 2006 $4.9964% (86%/81%)100,000 .. 200,0000%00:00 (00:00)
123 Dustoff Heli Rescue Mar 6, 2015 $3.9961% (85%)20,000 .. 50,0000%00:00 (00:00)
124 Slash or Die Jun 3, 2016 $2.9961% (85%)50,000 .. 100,0000%00:00 (00:00)
125 ENSLAVED: Odyssey to the West Premium Edition Oct 24, 2013 $19.9961% (85%/70%)200,000 .. 500,0000.31%00:27 (00:09)
126 Steel Rain Dec 3, 2015 $9.9961% (85%)0 .. 20,0002.63%00:32 (00:10)
127 Ballistic Tanks Sep 20, 2016 $4.9961% (85%)0 .. 20,0000%00:00 (00:00)
128 ShootMania Storm Apr 10, 2013 $19.9961% (85%/76%)50,000 .. 100,0000%00:00 (00:00)
129 NOBUNAGA'S AMBITION: Souzou (Traditional Chinese version) Aug 2014 $24.9961% (85%)20,000 .. 50,00025%07:58 (05:18)
130 CRYPTARK Jun 20, 2017 $3.7461% (85%/80%)50,000 .. 100,0000%00:00 (00:00)
131 Battle Group 2 Jun 13, 2014 $7.9959% (84%)50,000 .. 100,0000%00:00 (00:00)
132 Eador: Genesis Oct 14, 2013 $5.9959% (84%)50,000 .. 100,0000%00:00 (00:00)
133 Rooks Keep Dec 5, 2014 $7.99N/A (N/A)0 .. 20,0000%00:00 (00:00)
134 Yomi May 8, 2015 $14.9959% (84%)0 .. 20,0000%00:00 (00:00)
135 Act of War: Direct Action Mar 12, 2008 $2.9959% (84%/82%)20,000 .. 50,0000%00:00 (00:00)
136 Fat Chicken Dec 4, 2014 $9.99N/A (N/A)0 .. 20,0000%00:00 (00:00)
137 Gurgamoth Feb 16, 2016 $4.99N/A (N/A)50,000 .. 100,0001%01:07 (00:22)
138 The Men of Yoshiwara: Kikuya Oct 15, 2015 $29.9959% (84%)0 .. 20,0000%00:00 (00:00)
139 Last Knight: Rogue Rider Edition Oct 3, 2014 $7.9959% (84%)0 .. 20,0000%00:00 (00:00)
140 Western 1849 Reloaded Feb 10, 2017 $4.9959% (84%)0 .. 20,0004.76%01:07 (00:44)
141 Legend (1994) Apr 1, 1994 $4.99N/A (N/A)0 .. 20,0002.33%03:02 (01:00)
142 Conflict Desert Storm May 28, 2012 $6.9959% (84%/56%)20,000 .. 50,0000%00:00 (00:00)
143 Foresight Nov 28, 2014 $4.99N/A (N/A)0 .. 20,0003.51%03:22 (01:10)
144 Child Of Ault Jan 24, 2017 $9.99N/A (N/A)0 .. 20,0000%00:00 (00:00)
145 Orbital Gear Aug 7, 2014 $9.9956% (83%/59%)200,000 .. 500,0000.71%00:53 (00:35)
146 TY the Tasmanian Tiger 4 Sep 17, 2015 $5.9956% (83%)0 .. 20,0000%00:00 (00:00)
147 NOBUNAGA'S AMBITION: Sphere of Influence Sep 1, 2015 $59.9956% (83%/70%)20,000 .. 50,0000%00:00 (00:00)
148 Rack N Ruin Sep 1, 2015 $9.9956% (83%)0 .. 20,0000%00:00 (00:00)
149 GIBZ Apr 7, 2017 $7.9956% (83%)0 .. 20,00010%00:30 (00:10)
150 Ace of Protectors Jun 27, 2016 $1.99N/A (N/A)0 .. 20,00011.43%03:23 (04:12)
151 Galaxy Admirals Jan 17, 2017 $1.9956% (83%)50,000 .. 100,0000%00:00 (00:00)
152 Crush Your Enemies Jul 13, 2016 $9.9956% (83%/63%)20,000 .. 50,0002.7%03:32 (01:10)
153 Disciples Sacred Lands Gold Oct 7, 2014 $7.9956% (83%)20,000 .. 50,0000%00:00 (00:00)
154 Bulletstorm: Full Clip Edition Apr 7, 2017 $39.9956% (83%/76%)20,000 .. 50,0007.69%01:23 (00:55)
155 Sudden Strike 2 Gold Aug 30, 2002 $5.9956% (83%)20,000 .. 50,0000%00:00 (00:00)
156 Delta Force 2 Jun 18, 2009 $4.9956% (83%)50,000 .. 100,0000%00:00 (00:00)
157 Advanced Tactics Gold Aug 15, 2014 $29.9956% (83%)0 .. 20,0000%00:00 (00:00)
158 After The End: The Harvest Jun 2, 2017 $4.9954% (82%)20,000 .. 50,0000%00:00 (00:00)
159 Square Brawl Oct 22, 2015 $4.9954% (82%)0 .. 20,0000%00:00 (00:00)
160 Fleet Command Oct 26, 2006 $9.9954% (82%)20,000 .. 50,0000%00:00 (00:00)
161 She Wants Me Dead May 13, 2016 $7.99N/A (N/A)0 .. 20,0000%00:00 (00:00)
162 Shadow Ops: Red Mercury Jul 2, 2014 $6.9954% (82%/61%)20,000 .. 50,0000%00:00 (00:00)
163 Defense Zone Jul 14, 2014 $2.99N/A (N/A)0 .. 20,0000%00:00 (00:00)
164 htoL#NiQ: The Firefly Diary / htoL#NiQ-ホタルノニッキ- May 18, 2016 $9.9954% (82%)0 .. 20,0000%00:00 (00:00)
165 Age of Wonders Oct 2010 $5.9951% (81%)100,000 .. 200,0000%00:00 (00:00)
166 PixelJunk Shooter Ultimate Oct 21, 2015 $9.9951% (81%)20,000 .. 50,0002.94%00:02 (00:00)
167 Enemy Mind Jun 6, 2014 $9.9951% (81%)100,000 .. 200,0000.32%01:18 (00:26)
168 rymdkapsel Jan 30, 2014 $7.9951% (81%/77%)0 .. 20,0000%00:00 (00:00)
169 Anomaly 2 May 15, 2013 $14.9951% (81%/77%)200,000 .. 500,0000.36%03:23 (01:07)
170 Fate of the World Feb 28, 2011 $9.9951% (81%/70%)50,000 .. 100,0000%00:00 (00:00)
171 Graviteam Tactics: Operation Star Feb 11, 2014 $29.9951% (81%)20,000 .. 50,0000%00:00 (00:00)
172 Weapon of Choice Sep 23, 2015 $4.99N/A (N/A)0 .. 20,0000%00:00 (00:00)
173 Toadled Sep 22, 2016 $0.9951% (81%)50,000 .. 100,0000.4%02:06 (00:42)
174 Blade Arcus from Shining: Battle Arena Jul 28, 2016 $29.9951% (81%)0 .. 20,0000%00:00 (00:00)
175 Junk Jack Nov 30, 2016 $14.9951% (81%)0 .. 20,0000%00:00 (00:00)
176 Jim Power -The Lost Dimension Dec 10, 1993 $4.99N/A (N/A)0 .. 20,0002.27%05:16 (01:45)
177 In Verbis Virtus Apr 3, 2015 $19.9951% (81%)50,000 .. 100,0002.9%19:35 (13:03)
178 Run Rabbit Run Mar 31, 2016 $3.99N/A (N/A)0 .. 20,0000%00:00 (00:00)
179 Making History: The Calm & the Storm Mar 13, 2007 $4.9949% (80%/70%)50,000 .. 100,0000%00:00 (00:00)
180 Bloodsports.TV Mar 30, 2015 $9.9949% (80%/69%)50,000 .. 100,0001.82%02:27 (01:38)
181 Supreme Ruler 2020 Gold Jul 9, 2009 $9.9949% (80%/65%)50,000 .. 100,0000%00:00 (00:00)
182 Gatling Gears Aug 30, 2011 $9.9949% (80%)20,000 .. 50,0000%00:00 (00:00)
183 Age of Gladiators Feb 25, 2016 $9.9949% (80%)20,000 .. 50,0000%00:00 (00:00)
184 7,62 High Calibre Apr 30, 2014 $4.9949% (80%)50,000 .. 100,0000%00:00 (00:00)
185 Monday Night Combat Jan 24, 2011 $4.9949% (80%/82%)200,000 .. 500,0000.67%00:03 (00:01)
186 Trigger Runners Mar 3, 2016 $1.99N/A (N/A)0 .. 20,0000%00:00 (00:00)
187 Cultures - 8th Wonder of the World Mar 26, 2015 $4.9949% (80%)50,000 .. 100,0000%00:00 (00:00)
188 Afghanistan '11 Mar 23, 2017 $29.9949% (80%)0 .. 20,00020%03:41 (01:13)
189 Interplanetary May 12, 2015 N/A49% (80%)100,000 .. 200,0000%00:00 (00:00)
190 Ninjahtic Jul 6, 2015 $1.9949% (80%)0 .. 20,0000%00:00 (00:00)
191 Legends of Callasia Jun 10, 2016 $14.9949% (80%)50,000 .. 100,0000%00:00 (00:00)
192 Fantasy Wars Aug 6, 2010 $4.9949% (80%/67%)50,000 .. 100,0000%00:00 (00:00)
193 Anomaly Warzone Earth Mobile Campaign Nov 6, 2013 $4.9949% (80%)100,000 .. 200,0000%00:00 (00:00)
194 Gun Metal Jan 16, 2014 $1.0149% (80%)200,000 .. 500,0000.42%01:44 (01:09)
195 Perimeter Apr 3, 2014 $3.9949% (80%/77%)0 .. 20,0002.06%08:50 (05:27)
196 Hail to the King: Deathbat Oct 30, 2014 $5.9949% (80%)0 .. 20,0000%00:00 (00:00)
197 Conquest of Elysium 3 Oct 24, 2012 $9.9949% (80%)20,000 .. 50,0000%00:00 (00:00)
198 Dominions 3: The Awakening Sep 10, 2013 $19.9949% (80%/82%)0 .. 20,0000%00:00 (00:00)
199 ROD: Revolt Of Defense Aug 12, 2016 $0.9949% (80%)20,000 .. 50,0000%00:00 (00:00)
200 Locoland Nov 22, 2003 $4.99N/A (N/A)0 .. 20,0000%00:00 (00:00)
201 Battle Mages: Sign of Darkness Jul 24, 2014 $4.9947% (79%)0 .. 20,0000%00:00 (00:00)
202 Vietnam ‘65 Mar 5, 2015 $9.9947% (79%/81%)0 .. 20,0006.25%01:07 (00:22)
203 Ironcast Mar 26, 2015 $14.9947% (79%/75%)20,000 .. 50,0000%00:00 (00:00)
204 Envoy Mar 17, 2016 $4.99N/A (N/A)50,000 .. 100,0000.53%00:46 (00:15)
205 David. Mar 14, 2014 $1.9947% (79%)50,000 .. 100,0000.72%00:02 (00:00)
206 Demolition Inc. Sep 19, 2011 $5.9947% (79%)50,000 .. 100,0000%00:00 (00:00)
207 Nuclear Dawn Sep 26, 2011 $9.9947% (79%/71%)200,000 .. 500,0000.37%16:54 (05:38)
208 TASTEE: Lethal Tactics May 10, 2016 $14.9947% (79%)20,000 .. 50,0000%00:00 (00:00)
209 Protoshift Jan 15, 2016 $0.99N/A (N/A)0 .. 20,0000%00:00 (00:00)
210 Zombie Party Jun 10, 2016 $9.9947% (79%)100,000 .. 200,0004%24:45 (08:15)
211 Battlezone Gold Edition May 11, 2017 $34.9947% (79%)0 .. 20,0000%00:00 (00:00)
212 Zeno Clash 2 Apr 30, 2013 $14.9947% (79%)200,000 .. 500,0001.03%09:40 (09:35)
213 Caster Mar 19, 2009 $1.9947% (79%)200,000 .. 500,0000.27%02:49 (00:56)
214 Fortified Feb 3, 2016 $14.9947% (79%)500,000 .. 1,000,00056.84%04:28 (05:03)
215 Advent Rising Sep 14, 2006 $9.9947% (79%/70%)20,000 .. 50,0000%00:00 (00:00)
216 Tiki Man Jun 4, 2015 $0.9947% (79%)20,000 .. 50,0000%00:00 (00:00)
217 Star Wolves 3: Civil War Mar 2, 2010 $4.9947% (79%)100,000 .. 200,0000%00:00 (00:00)
218 TRON RUN/r Feb 16, 2016 $19.9947% (79%)0 .. 20,0000%00:00 (00:00)
219 Pharaonic Apr 28, 2016 $14.9945% (78%)0 .. 20,0005.88%00:07 (00:02)
220 Aeon Command Jul 3, 2014 $2.9945% (78%)20,000 .. 50,0000%00:00 (00:00)
221 The Legend of Dark Witch Dec 1, 2015 $4.9945% (78%)20,000 .. 50,0003.57%02:18 (01:32)
222 King of Dragon Pass Jul 28, 2015 $11.9945% (78%)0 .. 20,0002.67%01:56 (01:17)
223 PAC-MAN and the Ghostly Adventures Oct 29, 2013 $19.9945% (78%)0 .. 20,0000%00:00 (00:00)
224 Tank Destroyer Mar 9, 2017 $2.9945% (78%)20,000 .. 50,0001.89%00:41 (00:13)
225 Zombie Killtime Aug 4, 2015 $1.99N/A (N/A)0 .. 20,0000%00:00 (00:00)
226 Starscape Nov 3, 2008 $7.9945% (78%)20,000 .. 50,0000%00:00 (00:00)
227 Umihara Kawase Shun: Steam Edition Nov 24, 2015 $11.99N/A (N/A)0 .. 20,0000%00:00 (00:00)
228 Deadly 30 Jan 8, 2014 $3.4945% (78%)100,000 .. 200,0001.06%20:43 (13:48)
229 Strike Suit Zero: Director's Cut Apr 8, 2014 $19.9945% (78%)20,000 .. 50,0000%00:00 (00:00)
230 Dead Rising 2: Off the Record Oct 11, 2011 $19.9945% (78%/66%)200,000 .. 500,0002.2%01:12 (01:29)
231 Star Realms Mar 8, 2016 Free45% (78%)100,000 .. 200,0001.82%01:44 (00:34)
232 Vector Strain Dec 9, 2015 $4.99N/A (N/A)20,000 .. 50,0001.72%00:44 (00:14)
233 Warhammer 40,000: Armageddon Nov 26, 2014 $39.9945% (78%/68%)20,000 .. 50,0000%00:00 (00:00)
234 Mold on Pizza Sep 25, 2015 $5.9945% (78%)0 .. 20,0000%00:00 (00:00)
235 Making History II: The War of the World Aug 27, 2010 $14.9945% (78%/38%)20,000 .. 50,0002.7%00:29 (00:09)
236 A.R.E.S. Extinction Agenda EX Oct 3, 2014 $9.9943% (77%)0 .. 20,0000%00:00 (00:00)
237 Curse of the Crescent Isle DX Aug 21, 2015 $4.9943% (77%)0 .. 20,0000%00:00 (00:00)
238 Dangerous Waters Feb 7, 2006 $2.9943% (77%/82%)50,000 .. 100,0002.7%05:05 (01:41)
239 Sky Gamblers: Storm Raiders Jan 7, 2015 $9.9943% (77%)0 .. 20,0000%00:00 (00:00)
240 McDROID Sep 5, 2014 $9.9943% (77%)0 .. 20,0000%00:00 (00:00)
241 Starchaser: Priestess of the Night Sky Jul 24, 2015 $9.99N/A (N/A)0 .. 20,0000%00:00 (00:00)
242 The Political Machine 2016 Feb 4, 2016 $4.9943% (77%)50,000 .. 100,0000%00:00 (00:00)
243 A Blind Legend Apr 7, 2016 $6.9943% (77%)0 .. 20,0000%00:00 (00:00)
244 Olympia Rising Jul 23, 2015 $4.99N/A (N/A)0 .. 20,0000%00:00 (00:00)
245 Mysterium: A Psychic Clue Game Jan 12, 2017 $9.9943% (77%)50,000 .. 100,0000%00:00 (00:00)
246 Bet On Soldier Dec 5, 2014 $7.9943% (77%)20,000 .. 50,0000%00:00 (00:00)
247 Corgi Warlock Dec 3, 2015 $1.9941% (76%)20,000 .. 50,0000%00:00 (00:00)
248 Heroes of Might & Magic V: Hammers of Fate Oct 10, 2008 $9.9941% (76%/66%)200,000 .. 500,0000%00:00 (00:00)
249 Monster Monpiece Mar 14, 2017 $19.9941% (76%)0 .. 20,0000%00:00 (00:00)
250 Heroes of Arca Feb 16, 2017 Free41% (76%)0 .. 20,0000%00:00 (00:00)
251 Livelock Aug 30, 2016 $9.9941% (76%/73%)20,000 .. 50,0000%00:00 (00:00)
252 Deadlings: Rotten Edition Nov 11, 2014 $3.9941% (76%)50,000 .. 100,0001.01%01:01 (00:20)
253 Warlords Battlecry III May 17, 2004 $9.9941% (76%/73%)0 .. 20,00033.33%01:39 (00:49)
254 Painkiller Hell & Damnation Oct 31, 2012 $19.9941% (76%/64%)500,000 .. 1,000,0000.61%06:17 (04:11)
255 Rocket Knight May 11, 2010 $14.9941% (76%/63%)0 .. 20,0000%00:00 (00:00)
256 Extravaganza Rising Jul 21, 2016 N/AN/A (N/A)20,000 .. 50,0001.47%00:46 (00:15)
257 Spirits of Xanadu Mar 26, 2015 $4.9941% (76%)20,000 .. 50,0002.63%00:32 (00:10)
258 Velocity 2X Aug 19, 2015 $19.99N/A (N/A)50,000 .. 100,0000%00:00 (00:00)
259 Cashtronauts Sep 1, 2016 $2.9941% (76%)0 .. 20,0000%00:00 (00:00)
260 BloodRayne Sep 14, 2006 $9.9941% (76%/65%)50,000 .. 100,0002.17%00:11 (00:06)
261 Rocketbirds 2 Evolution Jan 26, 2017 $9.9941% (76%)0 .. 20,0000%00:00 (00:00)
262 Riddled Corpses Jun 2, 2015 $7.9941% (76%)20,000 .. 50,0001.79%00:14 (00:04)
263 Fist Puncher Jun 21, 2013 $9.9941% (76%/73%)20,000 .. 50,0000%00:00 (00:00)
264 Victory At Sea Aug 8, 2014 $24.9941% (76%)20,000 .. 50,0000%00:00 (00:00)
265 Chaser Jul 16, 2010 $4.9941% (76%/66%)100,000 .. 200,0000%00:00 (00:00)
266 Z Jul 4, 2014 $6.9941% (76%)100,000 .. 200,0005.94%05:55 (05:56)
267 WARSHIFT Oct 12, 2016 $12.9939% (75%)20,000 .. 50,0000%00:00 (00:00)
268 GEARGUNS Tank offensive Sep 22, 2016 $7.9939% (75%)20,000 .. 50,0001.49%04:59 (01:39)
269 Battle Time Sep 29, 2016 $0.9939% (75%)50,000 .. 100,0000%00:00 (00:00)
270 Othello Mar 19, 2015 $9.9939% (75%)0 .. 20,0000%00:00 (00:00)
271 Platformines Mar 28, 2014 $9.9939% (75%/67%)100,000 .. 200,0000%00:00 (00:00)
272 AirMech Command Mar 8, 2017 $19.9939% (75%)0 .. 20,0000%00:00 (00:00)
273 Zoo Empire Aug 1, 2004 $6.99N/A (N/A/59%)0 .. 20,0000%00:00 (00:00)
274 Perimeter: Emperor's Testament Aug 29, 2006 $3.99N/A (N/A/72%)20,000 .. 50,0000%00:00 (00:00)
275 Master Reboot Oct 29, 2013 $14.9939% (75%/59%)50,000 .. 100,0000%00:00 (00:00)
276 BossConstructor Oct 24, 2016 $14.9939% (75%)0 .. 20,0000%00:00 (00:00)
277 FIVE: Champions of Canaan Sep 27, 2016 $3.9939% (75%)0 .. 20,0000%00:00 (00:00)
278 Albino Lullaby: Episode 1 Sep 15, 2015 $9.9939% (75%)20,000 .. 50,0000%00:00 (00:00)
279 Pick a Hero Jun 9, 2016 $0.99N/A (N/A)0 .. 20,0000%00:00 (00:00)
280 CivCity: Rome Apr 6, 2007 $9.9939% (75%/67%)50,000 .. 100,0000%00:00 (00:00)
281 Smell Of Death Jul 4, 2016 $9.99N/A (N/A)0 .. 20,0000%00:00 (00:00)
282 Civil War II Jul 3, 2014 $39.9939% (75%)0 .. 20,0000%00:00 (00:00)
283 The Superfluous May 19, 2017 $4.99N/A (N/A)0 .. 20,0000%00:00 (00:00)
284 Hunting Unlimited 2008 Jan 29, 2008 $9.99N/A (N/A)20,000 .. 50,0000%00:00 (00:00)
285 Onechanbara Z2: Chaos Jun 2, 2016 $39.9939% (75%)0 .. 20,00018.18%01:20 (00:53)
286 Viktor Jun 13, 2014 $7.9937% (74%)20,000 .. 50,0000%00:00 (00:00)
287 Divinity: Dragon Commander Aug 6, 2013 $39.9937% (74%)200,000 .. 500,0000%00:00 (00:00)
288 Phoning Home Feb 7, 2017 $19.9937% (74%/61%)20,000 .. 50,0003.23%06:12 (02:04)
289 Auro: A Monster-Bumping Adventure Apr 13, 2016 $6.99N/A (N/A)0 .. 20,0000%00:00 (00:00)
290 Sid Meier’s Ace Patrol Aug 27, 2013 $4.9937% (74%)500,000 .. 1,000,0000%00:00 (00:00)
291 Vampire of the Sands Jul 17, 2015 $4.9937% (74%)20,000 .. 50,0000%00:00 (00:00)
292 Distant Worlds: Universe May 23, 2014 $59.9937% (74%/81%)50,000 .. 100,0000%00:00 (00:00)
293 TableTop Soccer Apr 22, 2016 $0.9937% (74%)0 .. 20,0000%00:00 (00:00)
294 Codex of Victory Mar 16, 2017 $14.9937% (74%)0 .. 20,0000%00:00 (00:00)
295 Ubersoldier II Mar 25, 2014 $9.9937% (74%/62%)20,000 .. 50,0000%00:00 (00:00)
296 Bubsy Two-Fur Jan 1, 1993 $4.9937% (74%)0 .. 20,0000%00:00 (00:00)
297 Retrovirus Jan 31, 2013 $9.9937% (74%/70%)20,000 .. 50,0000%00:00 (00:00)
298 FEIST Jul 23, 2015 $9.9937% (74%)20,000 .. 50,0000%00:00 (00:00)
299 Making History: The Great War Jan 29, 2015 $29.9937% (74%)0 .. 20,0000%00:00 (00:00)
300 Banzai Escape Mar 16, 2016 $5.9937% (74%)0 .. 20,0000%00:00 (00:00)
301 The Aquatic Adventure of the Last Human Jan 19, 2016 $9.9936% (73%/76%)0 .. 20,0000%00:00 (00:00)
302 Cross of the Dutchman Sep 10, 2015 $8.9936% (73%/59%)0 .. 20,0002.56%01:35 (00:31)
303 Death by Game Show Jan 22, 2016 $9.99N/A (N/A)20,000 .. 50,0001.89%02:05 (00:41)
304 Rex Rocket Aug 5, 2014 $4.9936% (73%)20,000 .. 50,0000%00:00 (00:00)
305 VRZ: Torment Jun 9, 2016 $9.9936% (73%)0 .. 20,0000%00:00 (00:00)
306 LEGO Indiana Jones 2: The Adventure Continues Feb 18, 2010 $19.9936% (73%/66%)50,000 .. 100,0000%00:00 (00:00)
307 Supreme Ruler Ultimate Oct 17, 2014 $19.9936% (73%)20,000 .. 50,00016.67%00:01 (00:00)
308 Cuban Missile Crisis May 6, 2005 $4.9934% (72%)20,000 .. 50,0000%00:00 (00:00)
309 There Came an Echo Feb 24, 2015 $14.9934% (72%/58%)20,000 .. 50,0000%00:00 (00:00)
310 Lost Planet: Extreme Condition Jun 26, 2007 $14.9934% (72%/66%)200,000 .. 500,0000%00:00 (00:00)
311 Battle Fleet 2 Nov 20, 2014 $14.9934% (72%)20,000 .. 50,0000%00:00 (00:00)
312 Lux Delux May 1, 2015 $9.9934% (72%)20,000 .. 50,0000%00:00 (00:00)
313 rooMaze Mar 3, 2017 $1.9934% (72%)100,000 .. 200,0000.78%02:05 (00:41)
314 Panzer Tactics HD May 22, 2014 $2.4934% (72%/69%)20,000 .. 50,0000%00:00 (00:00)
315 Hot Tin Roof: The Cat That Wore A Fedora Feb 20, 2015 $14.9934% (72%/66%)100,000 .. 200,0000%00:00 (00:00)
316 Pongo May 14, 2015 $0.9934% (72%)50,000 .. 100,0001.05%00:15 (00:05)
317 Rise & Shine Jan 13, 2017 $14.9934% (72%)20,000 .. 50,0000%00:00 (00:00)
318 Warp Mar 21, 2012 $9.9934% (72%)20,000 .. 50,0000%00:00 (00:00)
319 Deadnaut Dec 8, 2014 $9.9934% (72%)0 .. 20,0000%00:00 (00:00)
320 Fatal Fight Jun 10, 2016 $2.99N/A (N/A)0 .. 20,0000%00:00 (00:00)
321 Airship Dragoon Aug 26, 2014 $19.99N/A (N/A)0 .. 20,0000%00:00 (00:00)
322 Smithy Jun 3, 2016 $3.99N/A (N/A)50,000 .. 100,0000%00:00 (00:00)
323 Cast of the Seven Godsends - Redux Jul 20, 2015 $9.9934% (72%)20,000 .. 50,0000%00:00 (00:00)
324 Sengoku Jidai: Shadow of the Shogun May 19, 2016 $29.9934% (72%/80%)0 .. 20,0000%00:00 (00:00)
325 Heaven Forest NIGHTS Mar 13, 2017 $0.9934% (72%)100,000 .. 200,0000.92%02:03 (02:03)
326 Civil War: Battle of Petersburg Feb 8, 2017 $0.9934% (72%)0 .. 20,0001.14%03:30 (01:10)
327 Pike and Shot : Campaigns Aug 13, 2015 $39.9934% (72%)0 .. 20,0000%00:00 (00:00)
328 King Arthur - The Role-playing Wargame Nov 24, 2009 $9.9934% (72%)200,000 .. 500,0000%00:00 (00:00)
329 Wyv and Keep: The Temple of the Lost Idol Aug 8, 2014 $14.99N/A (N/A)20,000 .. 50,0000%00:00 (00:00)
330 Gold Rush! Anniversary Nov 7, 2014 $5.99N/A (N/A)100,000 .. 200,0000.77%01:10 (00:46)
331 Elliot Quest Nov 10, 2014 $9.9932% (71%)20,000 .. 50,0000%00:00 (00:00)
332 Elven Legacy Apr 7, 2009 $4.9932% (71%/71%)50,000 .. 100,0000%00:00 (00:00)
333 The Last Federation Apr 18, 2014 $19.9932% (71%/72%)50,000 .. 100,0001.08%00:19 (00:06)
334 Tom Clancy's EndWar Feb 25, 2009 $9.9932% (71%/68%)50,000 .. 100,0000%00:00 (00:00)
335 REDCON Apr 22, 2016 $5.9932% (71%)0 .. 20,0000%00:00 (00:00)
336 Space Colony: Steam Edition Apr 30, 2015 $14.9932% (71%/74%)20,000 .. 50,0000%00:00 (00:00)
337 Zombie Camp Aug 1, 2016 $1.99N/A (N/A)0 .. 20,0000%00:00 (00:00)
338 A.R.E.S.: Extinction Agenda Jan 19, 2011 $4.9932% (71%/68%)100,000 .. 200,0000.79%00:01 (00:00)
339 Disney Planes Oct 6, 2014 $19.99N/A (N/A)0 .. 20,0000%00:00 (00:00)
340 Revolution Under Siege Gold Jul 2, 2015 $24.9932% (71%)0 .. 20,0000%00:00 (00:00)
341 Pigmentone Jul 8, 2016 $1.99N/A (N/A)0 .. 20,00016.67%02:27 (01:33)
342 Little King's Story Aug 5, 2016 $19.9931% (70%/62%)0 .. 20,0000%00:00 (00:00)
343 BitMaster Oct 12, 2016 $2.9931% (70%)100,000 .. 200,0000.79%01:23 (01:03)
344 Jagged Alliance 2 - Wildfire Nov 16, 2012 $6.9931% (70%)200,000 .. 500,0001.56%05:04 (05:48)
345 Wildlife Park 2 - Crazy Zoo Jul 17, 2014 $3.99N/A (N/A)20,000 .. 50,00016.67%01:30 (00:45)
346 Strategy & Tactics: Wargame Collection Apr 22, 2016 $9.9931% (70%)20,000 .. 50,0001.33%00:16 (00:05)
347 Zombie City Defense 2 Aug 19, 2016 $9.9929% (69%)0 .. 20,0000%00:00 (00:00)
348 Guns n Zombies Oct 30, 2014 $7.9929% (69%)100,000 .. 200,0001.45%00:01 (00:00)
349 Collapse Apr 11, 2014 $19.9929% (69%)20,000 .. 50,0002.04%00:01 (00:00)
350 Incandescent Jun 30, 2015 $0.9929% (69%)0 .. 20,0000%00:00 (00:00)
351 1775: Rebellion Sep 29, 2016 $24.99N/A (N/A)0 .. 20,0000%00:00 (00:00)
352 UnSummoning: the Spectral Horde Dec 21, 2015 $3.99N/A (N/A)0 .. 20,0000%00:00 (00:00)
353 Warrior Kings Apr 24, 2014 $9.99N/A (N/A/73%)0 .. 20,0000%00:00 (00:00)
354 Quick Slick Deadly Sep 21, 2015 $1.9929% (69%)20,000 .. 50,0000%00:00 (00:00)
355 The Nightmare Cooperative Jul 16, 2014 $4.9929% (69%)50,000 .. 100,0000%00:00 (00:00)
356 Alea Jacta Est Nov 4, 2014 $24.9929% (69%)0 .. 20,0000%00:00 (00:00)
357 Brigade E5: New Jagged Union Apr 30, 2014 $3.9929% (69%/41%)0 .. 20,0000%00:00 (00:00)
358 Sol 0: Mars Colonization Jan 15, 2016 $3.9929% (69%)20,000 .. 50,0000%00:00 (00:00)
359 YAIBA: NINJA GAIDEN Z Mar 21, 2014 $29.9929% (69%/49%)20,000 .. 50,0000%00:00 (00:00)
360 Survivor Squad: Gauntlets Nov 16, 2015 $4.9928% (68%)20,000 .. 50,0000%00:00 (00:00)
361 8-Bit Commando Jun 2, 2014 $2.99N/A (N/A)50,000 .. 100,0000%00:00 (00:00)
362 The Hive Aug 25, 2016 $9.9928% (68%)20,000 .. 50,0000%00:00 (00:00)
363 Stonerid Aug 15, 2014 $4.9928% (68%)20,000 .. 50,0000%00:00 (00:00)
364 RISK: Factions Mar 8, 2011 $9.9928% (68%/77%)50,000 .. 100,0000%00:00 (00:00)
365 Toren May 11, 2015 $9.9928% (68%/57%)50,000 .. 100,0001.79%10:43 (05:47)
366 Theatre of War 2: Africa 1943 Jul 9, 2010 $4.9928% (68%/63%)100,000 .. 200,0000%00:00 (00:00)
367 Space Food Truck Mar 25, 2016 $9.9928% (68%)0 .. 20,0000%00:00 (00:00)
368 ManaCollect Apr 17, 2015 $6.99N/A (N/A)0 .. 20,0000%00:00 (00:00)
369 Fair Strike Feb 5, 2004 $3.99N/A (N/A/56%)0 .. 20,0000%00:00 (00:00)
370 Toy Odyssey: The Lost and Found Sep 20, 2016 $14.9928% (68%/66%)50,000 .. 100,0001.64%01:18 (00:52)
371 Zafehouse: Diaries Sep 6, 2013 $1.9926% (67%)0 .. 20,0000%00:00 (00:00)
372 Nomad Fleet Jul 14, 2015 $9.9926% (67%)20,000 .. 50,0000%00:00 (00:00)
373 7th Legion Oct 23, 2014 $6.2426% (67%)0 .. 20,0000%00:00 (00:00)
374 Bedlam Oct 13, 2015 $12.9926% (67%/54%)100,000 .. 200,0001.45%01:28 (01:25)
375 Chainsaw Warrior Oct 7, 2013 $4.9926% (67%)100,000 .. 200,0003.17%01:59 (02:18)
376 Crazy Forest Jul 6, 2016 $0.49N/A (N/A)100,000 .. 200,0000.6%08:13 (02:44)
377 Mad Combat Marines Jul 13, 2016 $0.9926% (67%)20,000 .. 50,0001.89%00:01 (00:00)
378 Kill The Plumber Dec 31, 2015 $4.9926% (67%)0 .. 20,0000%00:00 (00:00)
379 Men of War: Condemned Heroes Apr 12, 2012 $7.9925% (66%/57%)100,000 .. 200,0000%00:00 (00:00)
380 The Living Dungeon Nov 2, 2015 $12.99N/A (N/A)0 .. 20,0000%00:00 (00:00)
381 Sky To Fly: Faster Than Wind Mar 25, 2016 $3.99N/A (N/A)0 .. 20,0002.94%00:40 (00:13)
382 Scourge: Outbreak Apr 2, 2014 $7.9925% (66%)100,000 .. 200,0001.54%12:47 (08:31)
383 Sengoku Sep 15, 2011 $9.9925% (66%/70%)100,000 .. 200,0000%00:00 (00:00)
384 March of the Eagles Feb 18, 2013 $19.9925% (66%/71%)50,000 .. 100,0000%00:00 (00:00)
385 1849 May 8, 2014 $14.9925% (66%)20,000 .. 50,0000%00:00 (00:00)
386 Royal Defense Nov 10, 2014 $4.9925% (66%)50,000 .. 100,0000.55%00:32 (00:10)
387 Platypus II Aug 15, 2014 $6.9925% (66%)200,000 .. 500,0001.31%03:57 (06:33)
388 Commander Cool 2 Dec 17, 2015 $2.99N/A (N/A)20,000 .. 50,0000%00:00 (00:00)
389 Zombie Tycoon 2: Brainhov's Revenge Dec 9, 2013 $4.9925% (66%)50,000 .. 100,0000%00:00 (00:00)
390 Devil's Dare 悪魔の挑戦 Oct 21, 2014 $12.9924% (65%)20,000 .. 50,0002.78%02:46 (00:55)
391 Marauder Apr 4, 2014 $9.9924% (65%)20,000 .. 50,0000%00:00 (00:00)
392 Spirit of War Mar 12, 2015 $9.9924% (65%)0 .. 20,0002.22%00:15 (00:05)
393 Infinity Runner Jul 14, 2014 $6.9924% (65%/56%)0 .. 20,0000%00:00 (00:00)
394 Assassin’s Creed Chronicles: India Jan 12, 2016 $9.9924% (65%)20,000 .. 50,0000%00:00 (00:00)
395 Frozen Synapse Prime Nov 14, 2014 $24.9924% (65%/83%)100,000 .. 200,0000.78%00:48 (00:16)
396 Ground Breakers Jun 15, 2016 $4.99N/A (N/A)0 .. 20,0000%00:00 (00:00)
397 Disney Pirates of the Caribbean: At Worlds End Oct 6, 2014 $19.99N/A (N/A)0 .. 20,0000%00:00 (00:00)
398 Hunters Of The Dead Sep 4, 2014 $4.9924% (65%)0 .. 20,0000%00:00 (00:00)
399 Malebolgia May 6, 2015 $12.9924% (65%)0 .. 20,0000%00:00 (00:00)
400 Theatre of War 2: Kursk 1943 Jul 9, 2010 $4.9924% (65%)50,000 .. 100,0000%00:00 (00:00)
401 Jagged Alliance: Crossfire Aug 24, 2012 $14.9922% (64%/63%)20,000 .. 50,0000%00:00 (00:00)
402 Warlock 2: The Exiled Apr 10, 2014 $19.9922% (64%/73%)50,000 .. 100,0000%00:00 (00:00)
403 Double Dragon IV Jan 30, 2017 $6.9922% (64%/50%)0 .. 20,0000%00:00 (00:00)
404 Kaiju-A-GoGo Apr 23, 2015 $9.9922% (64%)20,000 .. 50,0000%00:00 (00:00)
405 A Game of Dwarves Oct 23, 2012 $9.9922% (64%/60%)50,000 .. 100,0000%00:00 (00:00)
406 Rise: Battle Lines Nov 17, 2015 $1.99N/A (N/A)0 .. 20,0000%00:00 (00:00)
407 Link Apr 22, 2016 $4.99N/A (N/A)0 .. 20,0000%00:00 (00:00)
408 Revenge of Roger Rouge Apr 22, 2016 $0.99N/A (N/A)20,000 .. 50,0000%00:00 (00:00)
409 Zoo Rampage Jul 9, 2014 $3.9922% (64%)50,000 .. 100,0005%17:19 (05:46)
410 Battle Worlds: Kronos Nov 4, 2013 $19.9922% (64%/71%)20,000 .. 50,0000%00:00 (00:00)
411 The Seven Years War (1756-1763) Oct 30, 2015 $19.9922% (64%)0 .. 20,0000%00:00 (00:00)
412 Urban Pirate Jun 17, 2016 $6.99N/A (N/A)0 .. 20,0000%00:00 (00:00)
413 SPACECOM Sep 17, 2014 $9.9922% (64%/68%)100,000 .. 200,0001.03%01:59 (01:19)
414 Beasts Battle Jun 15, 2016 $1.99N/A (N/A)0 .. 20,0000%00:00 (00:00)
415 Pixel Boy and the Ever Expanding Dungeon May 30, 2014 $0.9921% (63%)20,000 .. 50,0000%00:00 (00:00)
416 War, the Game Jan 12, 2015 $6.9921% (63%/65%)20,000 .. 50,0001.56%00:44 (00:14)
417 Desert Ashes Nov 10, 2014 $4.99N/A (N/A)20,000 .. 50,0000%00:00 (00:00)
418 Will Fight for Food: Super Actual Sellout: Game of the Hour Apr 22, 2015 $5.9921% (63%)0 .. 20,0000%00:00 (00:00)
419 Battleplan: American Civil War Jul 4, 2014 $9.9920% (62%/66%)100,000 .. 200,0000.81%02:00 (01:18)
420 My Super Tower 2 Jan 27, 2017 $0.99N/A (N/A)0 .. 20,0000%00:00 (00:00)
421 Goblin Defenders: Steel‘n’ Wood Aug 21, 2013 $2.9920% (62%)20,000 .. 50,0000%00:00 (00:00)
422 Sorcerer King: Rivals Sep 22, 2016 $14.9920% (62%)20,000 .. 50,0000%00:00 (00:00)
423 The Few Jun 18, 2014 $7.9920% (62%)20,000 .. 50,0000%00:00 (00:00)
424 Supreme Ruler: Cold War Jul 29, 2011 $9.9920% (62%/63%)20,000 .. 50,0000%00:00 (00:00)
425 Bombshell Jan 29, 2016 $34.9920% (62%)0 .. 20,0000%00:00 (00:00)
426 BattleLore: Command Nov 25, 2014 $6.9920% (62%)0 .. 20,0000%00:00 (00:00)
427 4089: Ghost Within Jan 9, 2015 $5.9920% (62%)0 .. 20,0000%00:00 (00:00)
428 Disney Epic Mickey 2: The Power of Two Oct 6, 2014 $19.9920% (62%)0 .. 20,0004.17%00:23 (00:07)
429 Port Royale 2 Jun 16, 2009 $4.9920% (62%/75%)50,000 .. 100,0000%00:00 (00:00)
430 Flashback Oct 1, 2013 $9.9920% (62%)20,000 .. 50,0000%00:00 (00:00)
431 Hyperspace Pinball Sep 30, 2015 $2.99N/A (N/A)0 .. 20,0000%00:00 (00:00)
432 Freight Tycoon Inc. Apr 3, 2014 $4.9920% (62%)20,000 .. 50,0000%00:00 (00:00)
433 Eclipse: New Dawn for the Galaxy Sep 16, 2016 N/A19% (61%)0 .. 20,0000%00:00 (00:00)
434 E.T. Armies Mar 3, 2016 $14.9919% (61%/54%)0 .. 20,0000%00:00 (00:00)
435 Legions of Steel Jul 16, 2015 $19.99N/A (N/A/64%)0 .. 20,0000%00:00 (00:00)
436 Call of Duty: Black Ops - Mac Edition Sep 27, 2012 $19.9919% (61%)0 .. 20,0000%00:00 (00:00)
437 Spice Road Apr 24, 2014 $19.99N/A (N/A)0 .. 20,0000%00:00 (00:00)
438 Gnumz: Masters of Defense Dec 21, 2015 $4.9919% (61%)20,000 .. 50,0000.95%03:01 (02:00)
439 To End All Wars Aug 29, 2014 $39.9919% (61%/71%)0 .. 20,0000%00:00 (00:00)
440 Men of War: Vietnam Sep 8, 2011 $7.9919% (61%/68%)100,000 .. 200,0000%00:00 (00:00)
441 Purgatory Jun 22, 2016 $0.9919% (61%)200,000 .. 500,0000.08%00:47 (00:15)
442 Quarantine Feb 9, 2017 $9.9918% (60%)0 .. 20,00020%00:03 (00:01)
443 Merchants of Kaidan Nov 10, 2014 $14.9918% (60%)100,000 .. 200,0006.67%03:47 (03:06)
444 Grim Seventh Jan 20, 2017 FreeN/A (N/A)0 .. 20,0000%00:00 (00:00)
445 Overruled! Sep 15, 2015 $12.99N/A (N/A)20,000 .. 50,0000%00:00 (00:00)
446 Woolfe - The Red Hood Diaries Mar 17, 2015 $9.9918% (60%/55%)50,000 .. 100,0000%00:00 (00:00)
447 Hybrid Wars Sep 29, 2016 $17.9918% (60%/54%)0 .. 20,0000%00:00 (00:00)
448 Patrician IV - Steam Special Edition Sep 17, 2010 $14.9918% (60%/66%)50,000 .. 100,0000.88%00:23 (00:07)
449 Code of Princess Apr 14, 2016 $14.9918% (60%/53%)0 .. 20,0000%00:00 (00:00)
450 Skyshine's BEDLAM Sep 16, 2015 $19.9918% (60%/67%)20,000 .. 50,0000%00:00 (00:00)
451 Disciples III - Renaissance Steam Special Edition Jul 16, 2010 $14.9918% (60%/56%)100,000 .. 200,0000%00:00 (00:00)
452 Stay Dead Evolution Feb 4, 2015 $5.99N/A (N/A)20,000 .. 50,0000%00:00 (00:00)
453 Close Combat - Panthers in the Fog Nov 19, 2012 $39.9918% (60%)0 .. 20,0000%00:00 (00:00)
454 Armada 2526 Gold Edition Feb 28, 2013 $19.9917% (59%/66%)20,000 .. 50,0000%00:00 (00:00)
455 Woodle Tree 2: Worlds Sep 16, 2016 $3.9917% (59%)20,000 .. 50,00020.51%04:58 (05:10)
456 Cemetery Warrior 3 Feb 3, 2017 $0.9917% (59%)50,000 .. 100,0000.51%00:44 (00:14)
457 Ninjahtic Mind Tricks Jul 16, 2015 $1.99N/A (N/A)0 .. 20,0000%00:00 (00:00)
458 7 Grand Steps: What Ancients Begat Jun 7, 2013 $19.9917% (59%)100,000 .. 200,0000%00:00 (00:00)
459 VR Journey Dec 15, 2016 $2.9917% (59%)20,000 .. 50,0000%00:00 (00:00)
460 Prospekt Feb 18, 2016 $9.9917% (59%)20,000 .. 50,0005.56%03:58 (01:19)
461 Check vs Mate Aug 16, 2012 $19.9917% (59%/69%)0 .. 20,0000%00:00 (00:00)
462 Super Helmets on Fire DX Ultra Edition Plus Alpha Feb 15, 2016 $0.99N/A (N/A)0 .. 20,0000%00:00 (00:00)
463 Antisquad May 22, 2014 $5.9917% (59%)50,000 .. 100,0000%00:00 (00:00)
464 Sir! I'd Like To Report A Bug! Oct 19, 2015 $1.99N/A (N/A)0 .. 20,0000%00:00 (00:00)
465 DreamBreak Jul 21, 2016 $6.99N/A (N/A/46%)0 .. 20,0000%00:00 (00:00)
466 Adventure World Aug 2, 2016 $4.99N/A (N/A)0 .. 20,0000%00:00 (00:00)
467 Prophour23 Oct 22, 2014 $9.99N/A (N/A)0 .. 20,0006.9%02:58 (01:43)
468 Wanderlust Adventures Aug 10, 2015 $9.9916% (58%)0 .. 20,0000%00:00 (00:00)
469 Heavy Fire: Afghanistan Aug 15, 2014 $2.9916% (58%)20,000 .. 50,0000%00:00 (00:00)
470 Ceres Oct 16, 2015 $19.9916% (58%/74%)0 .. 20,0000%00:00 (00:00)
471 Colonial Conquest Jul 28, 2015 $9.9916% (58%)0 .. 20,0000%00:00 (00:00)
472 Rise of Venice Sep 27, 2013 $19.9915% (57%/66%)50,000 .. 100,0002.78%00:39 (00:13)
473 Gates of Horizon Dec 18, 2014 $9.9915% (57%)0 .. 20,0000%00:00 (00:00)
474 Unearthed: Trail of Ibn Battuta - Episode 1 - Gold Edition Jan 3, 2014 $4.9915% (57%)20,000 .. 50,0000%00:00 (00:00)
475 Assault on Arnhem Mar 11, 2016 $9.99N/A (N/A)0 .. 20,0000%00:00 (00:00)
476 Defend Your Crypt Jul 21, 2016 $2.99N/A (N/A)0 .. 20,0000%00:00 (00:00)
477 Horizon Feb 6, 2014 $29.9914% (56%)50,000 .. 100,0000%00:00 (00:00)
478 reconquest Dec 16, 2016 $11.9914% (56%)0 .. 20,0000%00:00 (00:00)
479 Delve Deeper Sep 24, 2010 $4.9914% (56%)50,000 .. 100,0000%00:00 (00:00)
480 Abalone Apr 23, 2014 $4.9914% (56%)0 .. 20,0000%00:00 (00:00)
481 Pain Train Jan 11, 2017 $0.9913% (55%)50,000 .. 100,0005.22%02:09 (02:56)
482 BC Kings Jun 16, 2009 $4.9913% (55%)20,000 .. 50,0000%00:00 (00:00)
483 Tic-Toc-Tower Sep 28, 2015 $2.9913% (54%)0 .. 20,0000%00:00 (00:00)
484 Wickland Feb 6, 2015 $0.9913% (54%)100,000 .. 200,0001.22%01:24 (00:56)
485 Crusaders: Thy Kingdom Come Oct 8, 2009 $9.99N/A (N/A)20,000 .. 50,0000%00:00 (00:00)
486 Story Of the Survivor Feb 17, 2016 $3.49N/A (N/A)50,000 .. 100,0000%00:00 (00:00)
487 Armada 2526 Apr 8, 2011 $14.99N/A (N/A/66%)0 .. 20,0000%00:00 (00:00)
488 Defence to death May 11, 2017 $1.99N/A (N/A)50,000 .. 100,0000%00:00 (00:00)
489 Nightside Apr 2, 2015 $9.9912% (53%)20,000 .. 50,0000%00:00 (00:00)
490 Aegis Oct 6, 2016 $2.99N/A (N/A)0 .. 20,0000%00:00 (00:00)
491 Smugglers 5 Apr 11, 2014 $9.9912% (53%)20,000 .. 50,0000%00:00 (00:00)
492 Urja Jan 9, 2015 $9.9912% (53%)0 .. 20,0000%00:00 (00:00)
493 The Stalin Subway Sep 19, 2014 $3.9911% (52%)0 .. 20,0000%00:00 (00:00)
494 Meridian: New World Sep 26, 2014 $6.9911% (52%/43%)50,000 .. 100,0001.69%21:38 (13:59)
495 Scapeland Mar 31, 2016 $3.99N/A (N/A)0 .. 20,0000%00:00 (00:00)
496 Royal Bounty HD Aug 10, 2015 $2.9911% (52%)0 .. 20,0000%00:00 (00:00)
497 The Campaign Series: Fall Weiss May 30, 2014 $14.99N/A (N/A)20,000 .. 50,0002%05:32 (01:50)
498 MDK2 HD Jul 30, 2012 $14.9911% (51%/73%)0 .. 20,0000%00:00 (00:00)
499 Castle Werewolf 3D Feb 7, 2017 $2.9911% (51%)50,000 .. 100,0000.35%00:15 (00:05)
500 Dusty Revenge:Co-Op Edition Feb 17, 2014 $14.9911% (51%)50,000 .. 100,0000.85%03:15 (01:05)
501 Biodrone Battle Jul 16, 2015 $1.9911% (51%)100,000 .. 200,0000%00:00 (00:00)
502 Guncraft Aug 9, 2013 $14.9911% (51%/73%)100,000 .. 200,0000%00:00 (00:00)
503 No Pineapple Left Behind Feb 18, 2016 $6.99N/A (N/A/59%)0 .. 20,0000%00:00 (00:00)
504 Albedo: Eyes from Outer Space Apr 10, 2015 $14.9910% (50%/66%)50,000 .. 100,0000%00:00 (00:00)
505 Marvel: Ultimate Alliance 2 Jul 26, 2016 $39.9910% (50%)0 .. 20,0000%00:00 (00:00)
506 MinosMaze - The Minotaur's Labyrinth May 1, 2017 $4.99N/A (N/A)0 .. 20,0000%00:00 (00:00)
507 PeriAreion Feb 19, 2015 $5.99N/A (N/A)0 .. 20,0000%00:00 (00:00)
508 Odd||Even Apr 6, 2016 $0.99N/A (N/A)20,000 .. 50,0000.75%00:15 (00:05)
509 Weather Lord: The Successor's Path Apr 8, 2015 $1.24N/A (N/A)0 .. 20,0000%00:00 (00:00)
510 Kidnapped Aug 4, 2015 $2.999% (49%)100,000 .. 200,0000.74%08:17 (05:20)
511 Meridian: Squad 22 Aug 11, 2016 $14.99N/A (N/A)0 .. 20,0000%00:00 (00:00)
512 Rubber and Lead Sep 4, 2015 $4.999% (48%)20,000 .. 50,0001.33%94:03 (31:21)
513 Synonymy Mar 5, 2015 $1.99N/A (N/A)0 .. 20,0002.7%01:01 (00:20)
514 Z Steel Soldiers Aug 1, 2014 $12.999% (48%)50,000 .. 100,0000.57%16:59 (05:39)
515 Aggression: Europe Under Fire Apr 9, 2014 $9.999% (48%)0 .. 20,0000%00:00 (00:00)
516 Island Defense Jul 23, 2015 $1.99N/A (N/A)50,000 .. 100,0000.44%01:14 (00:24)
517 Blasting Agent: Ultimate Edition Aug 17, 2016 $2.99N/A (N/A)0 .. 20,0000%00:00 (00:00)
518 Crossfire: Dungeons Jan 15, 2007 $0.518% (47%)0 .. 20,0000%00:00 (00:00)
519 Hero Generations Apr 10, 2015 $5.998% (47%)0 .. 20,0000%00:00 (00:00)
520 Disposable Heroes Oct 1, 2015 $4.998% (47%)0 .. 20,0002.38%00:32 (00:10)
521 Star Traders: 4X Empires Dec 16, 2014 $9.998% (47%)0 .. 20,0000%00:00 (00:00)
522 The Stalin Subway: Red Veil Oct 24, 2014 $2.998% (46%)20,000 .. 50,0003.23%00:01 (00:00)
523 Megamagic: Wizards of the Neon Age Apr 20, 2016 $2.99N/A (N/A/67%)20,000 .. 50,0002.63%04:09 (01:23)
524 Magic Quest May 6, 2016 $1.99N/A (N/A)50,000 .. 100,0000.4%00:48 (00:16)
525 Redemption: Saints And Sinners Nov 18, 2016 $0.998% (46%)50,000 .. 100,0000.4%00:34 (00:11)
526 HitBox Jan 30, 2017 Free7% (45%)0 .. 20,0000%00:00 (00:00)
527 The Bluecoats: North vs South May 10, 2012 $4.997% (45%)50,000 .. 100,0003.28%02:24 (01:36)
528 World War 2: Time of Wrath Jun 6, 2014 $4.997% (45%)20,000 .. 50,0000%00:00 (00:00)
529 Commander: Conquest of the Americas Jul 30, 2010 $9.997% (45%/68%)50,000 .. 100,0000%00:00 (00:00)
530 Impire Feb 14, 2013 $19.997% (45%/45%)100,000 .. 200,0000%00:00 (00:00)
531 Chronostorm: Siberian Border Apr 2, 2009 $0.99N/A (N/A)0 .. 20,0000%00:00 (00:00)
532 Carrier Command: Gaea Mission Sep 28, 2012 $32.997% (45%/60%)200,000 .. 500,0000%00:00 (00:00)
533 Hell Nov 13, 2014 $29.99N/A (N/A)0 .. 20,0000%00:00 (00:00)
534 Skyward Collapse May 23, 2013 $4.997% (44%/64%)100,000 .. 200,0000%00:00 (00:00)
535 Nux Aug 15, 2014 $6.997% (44%)100,000 .. 200,0000.7%05:45 (05:29)
536 Pride of Nations Jun 7, 2011 $19.997% (44%/70%)20,000 .. 50,0000%00:00 (00:00)
537 Vendetta - Curse of Raven's Cry Nov 20, 2015 $29.997% (43%)0 .. 20,0000%00:00 (00:00)
538 DUNGEONS - Steam Special Edition Feb 10, 2011 $9.997% (43%/65%)200,000 .. 500,0000%00:00 (00:00)
539 The Entente Gold Jun 16, 2014 $1.996% (42%)20,000 .. 50,0000%00:00 (00:00)
540 Sword of the Stars II: Enhanced Edition Nov 30, 2012 $19.996% (42%/65%)100,000 .. 200,0000%00:00 (00:00)
541 Samudai Feb 9, 2015 $2.996% (42%)20,000 .. 50,0002.5%00:15 (00:05)
542 Burstfire Sep 24, 2015 N/A6% (42%)50,000 .. 100,0000%00:00 (00:00)
543 Lost in Paradise Aug 20, 2015 $2.99N/A (N/A)20,000 .. 50,0000%00:00 (00:00)
544 Hydraulic Empire Jul 31, 2015 $7.99N/A (N/A)0 .. 20,0003.7%00:33 (00:11)
545 Infection: Humanity's Last Gasp May 26, 2016 $9.99N/A (N/A)0 .. 20,0000%00:00 (00:00)
546 Rulers of Nations Jul 16, 2014 $19.996% (41%/63%)0 .. 20,0000%00:00 (00:00)
547 The Kings' Crusade Oct 8, 2010 $9.995% (40%/71%)50,000 .. 100,0000%00:00 (00:00)
548 Devils & Demons Oct 6, 2015 $9.995% (40%)20,000 .. 50,0000%00:00 (00:00)
549 Dead But Alive! Southern England Oct 2, 2015 $14.99N/A (N/A)0 .. 20,0003.23%00:24 (00:08)
550 R.I.P.D.: The Game Jul 16, 2013 $9.995% (40%)20,000 .. 50,0000%00:00 (00:00)
551 Strategic War in Europe Mar 21, 2014 $14.995% (40%)20,000 .. 50,0000%00:00 (00:00)
552 Heavy Fire: Shattered Spear Oct 23, 2015 $3.99N/A (N/A)0 .. 20,0000%00:00 (00:00)
553 Wave of Darkness Nov 5, 2015 $29.99N/A (N/A)0 .. 20,0000%00:00 (00:00)
554 Dark Matter Oct 17, 2013 $1.795% (39%)0 .. 20,0005.88%00:34 (00:11)
555 Pain Train 2 Mar 16, 2017 $6.995% (39%)0 .. 20,00015.15%02:43 (03:06)
556 Zombie Apocalypse: Escape The Undead City Nov 25, 2013 $0.99N/A (N/A)0 .. 20,0004.76%24:44 (08:14)
557 Dungeons - The Dark Lord Sep 27, 2011 $19.995% (39%/72%)100,000 .. 200,0000%00:00 (00:00)
558 Control Craft 2 Feb 15, 2016 $2.99N/A (N/A)0 .. 20,0002.33%00:31 (00:10)
559 Gratuitous Space Battles 2 Apr 16, 2015 $9.995% (38%)20,000 .. 50,0000%00:00 (00:00)
560 Mechs & Mercs: Black Talons Jan 9, 2015 $9.995% (38%)0 .. 20,0000%00:00 (00:00)
561 Risk Jun 10, 2013 $9.995% (38%)20,000 .. 50,00020%05:02 (01:40)
562 Tiamat X May 29, 2015 $1.995% (38%)20,000 .. 50,0001%00:33 (00:11)
563 Stellar Impact Apr 12, 2012 $9.994% (37%/74%)50,000 .. 100,0001.28%03:13 (01:04)
564 Kick-Ass 2 Aug 15, 2014 $19.994% (36%)0 .. 20,0000%00:00 (00:00)
565 Knight Adventure Oct 15, 2015 $0.99N/A (N/A)50,000 .. 100,0002.56%04:31 (04:35)
566 Shadows of War Jan 2, 2015 $2.994% (35%)20,000 .. 50,0000%00:00 (00:00)
567 Urban Empire Jan 20, 2017 $29.994% (35%/62%)50,000 .. 100,0000%00:00 (00:00)
568 Blue Sheep Mar 31, 2016 $1.99N/A (N/A)0 .. 20,0000%00:00 (00:00)
569 Fallen: A2P Protocol Aug 14, 2015 $9.993% (34%)20,000 .. 50,0000%00:00 (00:00)
570 Into the Void Dec 4, 2015 $4.99N/A (N/A)20,000 .. 50,0002.17%00:15 (00:05)
571 Arma Tactics Oct 1, 2013 $8.993% (34%/47%)100,000 .. 200,0001.52%02:57 (03:14)
572 Sim Junta Aug 18, 2015 $1.993% (33%)0 .. 20,0000%00:00 (00:00)
573 Ranger of the jungle Jul 16, 2016 $3.19N/A (N/A)0 .. 20,0000%00:00 (00:00)
574 Jagged Alliance Flashback Oct 21, 2014 $19.993% (33%)20,000 .. 50,0000%00:00 (00:00)
575 Disciples III - Resurrection Oct 11, 2011 $14.993% (32%/63%)100,000 .. 200,0000%00:00 (00:00)
576 Ku: Shroud of the Morrigan Mar 17, 2014 $4.99N/A (N/A)20,000 .. 50,0000%00:00 (00:00)
577 Psichodelya Aug 8, 2014 $1.99N/A (N/A)100,000 .. 200,0001.24%06:18 (06:13)
578 Zombie Zoeds May 20, 2015 $2.993% (31%)200,000 .. 500,0000.82%06:53 (06:37)
579 Ground Pounders Jul 15, 2014 $4.99N/A (N/A)0 .. 20,0000%00:00 (00:00)
580 Evopollution Apr 23, 2014 $4.993% (31%)0 .. 20,0000%00:00 (00:00)
581 Robotex Nov 19, 2014 $4.993% (31%)100,000 .. 200,0000.95%01:45 (01:10)
582 A Game of Thrones - Genesis Sep 28, 2011 $9.993% (31%)100,000 .. 200,0000%00:00 (00:00)
583 Power of Defense Aug 4, 2010 $9.99N/A (N/A)0 .. 20,0000%00:00 (00:00)
584 Tank Operations: European Campaign Nov 22, 2013 $14.993% (30%)20,000 .. 50,0000%00:00 (00:00)
585 Defenders of Time Nov 4, 2014 N/AN/A (N/A/55%)0 .. 20,0000%00:00 (00:00)
586 Solar Shifter EX Sep 11, 2015 $4.99N/A (N/A)20,000 .. 50,0000%00:00 (00:00)
587 Gridberd Sep 7, 2015 $6.992% (26%)200,000 .. 500,0000.31%01:54 (01:15)
588 Hard Truck Apocalypse: Arcade / Ex Machina: Arcade Mar 14, 2014 $4.992% (26%)20,000 .. 50,0000%00:00 (00:00)
589 Zombies on a Plane Mar 25, 2016 $4.992% (25%)0 .. 20,0004.76%17:20 (05:46)
590 One Star Apr 17, 2017 $2.99N/A (N/A)50,000 .. 100,0000.8%02:09 (00:50)
591 APOX Jan 20, 2011 $14.991% (22%/48%)20,000 .. 50,0000%00:00 (00:00)
592 Elite vs. Freedom May 31, 2016 $4.991% (22%)0 .. 20,0000%00:00 (00:00)
593 The Asskickers-Steam Edition Feb 6, 2015 $9.99N/A (N/A)0 .. 20,0000%00:00 (00:00)
594 Lords of the Black Sun Sep 12, 2014 $4.491% (21%)0 .. 20,0000%00:00 (00:00)
595 Human Extinction Simulator Jan 21, 2015 $19.99N/A (N/A)0 .. 20,0000%00:00 (00:00)
596 Gemini Wars Nov 2, 2012 $2.691% (19%/53%)20,000 .. 50,0000%00:00 (00:00)
597 Star Project Aug 4, 2016 $1.99N/A (N/A)100,000 .. 200,0005.43%04:03 (04:25)
598 Tryst Sep 14, 2012 $14.99N/A (N/A/50%)0 .. 20,0000%00:00 (00:00)
599 Prison Tycoon 3: Lockdown Jan 29, 2008 $9.991% (16%)20,000 .. 50,0000%00:00 (00:00)
600 Once Bitten, Twice Dead! Jul 17, 2015 $4.991% (13%)20,000 .. 50,0000%00:00 (00:00)
601 Citadels Jul 25, 2013 $14.991% (12%/20%)20,000 .. 50,0009.09%00:01 (00:00)
602 Bloodbath Jun 16, 2014 $14.99N/A (N/A)0 .. 20,0000%00:00 (00:00)
603 Magnetic By Nature Nov 10, 2014 $9.99N/A (N/A)20,000 .. 50,0000%00:00 (00:00)

Owners of this game also own:

Access restricted.

This feature is only available to users with special access rights. Sorry.

If you want to proceed, you need to register or log in first and then back Steam Spy on Patreon. Look for Indie or Pro pledge.

Don't forget to use the same email as on Steam Spy!

Playtime distribution:

Access restricted.

This feature is only available to users with special access rights. Sorry.

If you want to proceed, you need to register or log in first and then back Steam Spy on Patreon. Look for Indie or Pro pledge.

Don't forget to use the same email as on Steam Spy!

Playtime (2 weeks):

Access restricted.

This feature is only available to users with special access rights. Sorry.

If you want to proceed, you need to register or log in first and then back Steam Spy on Patreon. Look for Indie or Pro pledge.

Don't forget to use the same email as on Steam Spy!

User reviews:

Login required.

Please register or log in to see this information.